createdAt,value
2022-08-23T00:01:29.168Z,71.70
2022-08-23T00:04:00.950Z,72.29
2022-08-23T00:06:27.523Z,72.64
2022-08-23T00:08:54.186Z,73.87
2022-08-23T00:11:47.154Z,77.01
2022-08-23T00:14:19.438Z,78.98
2022-08-23T00:16:46.464Z,76.08
2022-08-23T00:19:14.282Z,77.93
2022-08-23T00:21:41.423Z,79.52
2022-08-23T00:24:08.821Z,81.05
2022-08-23T00:26:48.354Z,82.64
2022-08-23T00:29:14.943Z,83.03
2022-08-23T00:31:41.483Z,83.27
2022-08-23T00:34:08.598Z,83.23
2022-08-23T00:36:35.181Z,83.65
2022-08-23T00:39:01.713Z,84.36
2022-08-23T00:41:28.242Z,84.17
2022-08-23T00:44:30.166Z,83.52
2022-08-23T00:47:16.566Z,82.03
2022-08-23T00:49:45.558Z,82.00
2022-08-23T00:52:18.650Z,81.00
2022-08-23T00:54:45.748Z,80.92
2022-08-23T00:57:14.492Z,81.83
2022-08-23T00:59:41.681Z,78.66
2022-08-23T01:02:08.472Z,73.20
2022-08-23T01:04:38.508Z,72.73
2022-08-23T01:07:22.242Z,80.51
2022-08-23T01:09:49.967Z,87.95
2022-08-23T01:12:32.535Z,90.29
2022-08-23T01:15:11.521Z,91.57
2022-08-23T01:17:44.768Z,94.27
2022-08-23T01:20:14.495Z,92.23
2022-08-23T01:22:58.125Z,90.62
2022-08-23T01:25:27.209Z,90.87
2022-08-23T01:27:53.842Z,91.83
2022-08-23T01:30:22.522Z,89.80
2022-08-23T01:32:56.917Z,89.85
2022-08-23T01:35:28.397Z,90.86
2022-08-23T01:37:54.995Z,91.25
2022-08-23T01:40:21.719Z,94.16
2022-08-23T01:42:49.496Z,93.28
2022-08-23T01:45:16.887Z,93.46
2022-08-23T01:47:44.326Z,93.77
2022-08-23T01:50:12.772Z,95.24
2022-08-23T01:52:46.775Z,95.33
2022-08-23T01:55:15.862Z,96.14
2022-08-23T01:57:43.414Z,96.83
2022-08-23T02:00:13.723Z,98.07
2022-08-23T02:02:40.878Z,99.28
2022-08-23T02:05:08.977Z,97.87
2022-08-23T02:07:36.354Z,98.40
2022-08-23T02:10:04.503Z,96.99
2022-08-23T02:12:31.322Z,96.71
2022-08-23T02:15:08.726Z,99.51
2022-08-23T02:17:37.267Z,99.13
2022-08-23T02:20:05.430Z,98.34
2022-08-23T02:22:33.445Z,99.02
2022-08-23T02:25:00.947Z,99.74
2022-08-23T02:27:27.515Z,100.00
2022-08-23T02:29:55.569Z,98.83
2022-08-23T02:32:22.576Z,96.42
2022-08-23T02:35:05.642Z,96.28
2022-08-23T02:37:34.642Z,96.63
2022-08-23T02:40:02.073Z,96.96
2022-08-23T02:42:29.266Z,99.05
2022-08-23T02:44:55.945Z,100.00
2022-08-23T02:47:23.613Z,100.00
2022-08-23T02:50:04.993Z,100.00
2022-08-23T02:52:31.529Z,100.00
2022-08-23T02:54:58.783Z,100.00
2022-08-23T02:57:25.605Z,100.00
2022-08-23T02:59:54.678Z,100.00
2022-08-23T03:02:21.826Z,100.00
2022-08-23T03:04:48.578Z,100.00
2022-08-23T03:07:15.124Z,100.00
2022-08-23T03:09:41.642Z,100.00
2022-08-23T03:12:08.183Z,100.00
2022-08-23T03:14:38.039Z,100.00
2022-08-23T03:17:05.229Z,100.00
2022-08-23T03:19:31.803Z,100.00
2022-08-23T03:21:58.321Z,100.00
2022-08-23T03:24:25.264Z,100.00
2022-08-23T03:26:52.497Z,100.00
2022-08-23T03:29:19.791Z,100.00
2022-08-23T03:31:59.609Z,100.00
2022-08-23T03:34:27.510Z,100.00
2022-08-23T03:36:54.190Z,100.00
2022-08-23T03:39:20.726Z,100.00
2022-08-23T03:41:48.199Z,100.00
2022-08-23T03:44:14.767Z,100.00
2022-08-23T03:46:43.588Z,100.00
2022-08-23T03:49:10.411Z,100.00
2022-08-23T03:51:50.133Z,100.00
2022-08-23T03:54:16.791Z,100.00
2022-08-23T03:56:55.978Z,100.00
2022-08-23T03:59:24.000Z,100.00
2022-08-23T04:01:50.614Z,100.00
2022-08-23T04:04:17.779Z,100.00
2022-08-23T04:07:04.231Z,100.00
2022-08-23T04:09:31.306Z,100.00
2022-08-23T04:11:58.041Z,100.00
2022-08-23T04:14:24.873Z,100.00
2022-08-23T04:16:52.217Z,99.60
2022-08-23T04:19:21.265Z,100.00
2022-08-23T04:22:00.914Z,100.00
2022-08-23T04:24:34.456Z,100.00
2022-08-23T04:27:01.049Z,100.00
2022-08-23T04:29:33.824Z,100.00
2022-08-23T04:32:02.994Z,100.00
2022-08-23T04:34:33.779Z,99.13
2022-08-23T04:37:00.542Z,97.59
2022-08-23T04:39:27.430Z,100.00
2022-08-23T04:42:15.019Z,100.00
2022-08-23T04:44:42.709Z,97.47
2022-08-23T04:47:11.711Z,96.31
2022-08-23T04:49:38.833Z,95.41
2022-08-23T04:52:06.028Z,94.67
2022-08-23T04:54:32.944Z,91.31
2022-08-23T04:57:18.308Z,90.60
2022-08-23T04:59:47.274Z,95.03
2022-08-23T05:02:15.474Z,94.21
2022-08-23T05:04:42.915Z,93.53
2022-08-23T05:07:09.593Z,92.01
2022-08-23T05:09:36.397Z,89.85
2022-08-23T05:12:03.449Z,90.63
2022-08-23T05:14:31.245Z,91.29
2022-08-23T05:16:57.786Z,92.91
2022-08-23T05:19:25.289Z,93.08
2022-08-23T05:21:56.342Z,93.69
2022-08-23T05:24:29.062Z,93.14
2022-08-23T05:26:55.599Z,89.51
2022-08-23T05:29:22.175Z,92.80
2022-08-23T05:31:50.664Z,92.81
2022-08-23T05:34:22.401Z,92.93
2022-08-23T05:36:55.212Z,92.21
2022-08-23T05:39:24.248Z,92.23
2022-08-23T05:41:59.534Z,92.54
2022-08-23T05:44:26.125Z,89.76
2022-08-23T05:46:52.657Z,88.30
2022-08-23T05:49:30.962Z,90.94
2022-08-23T05:51:58.317Z,94.00
2022-08-23T05:54:29.385Z,93.19
2022-08-23T05:57:17.244Z,93.74
2022-08-23T05:59:43.872Z,93.22
2022-08-23T06:02:10.500Z,92.34
2022-08-23T06:04:37.170Z,93.35
2022-08-23T06:07:05.826Z,89.51
2022-08-23T06:09:32.809Z,90.17
2022-08-23T06:12:00.046Z,91.57
2022-08-23T06:14:26.875Z,89.38
2022-08-23T06:16:56.001Z,90.57
2022-08-23T06:19:26.334Z,89.60
2022-08-23T06:22:12.498Z,89.10
2022-08-23T06:24:41.773Z,90.86
2022-08-23T06:27:13.418Z,93.92
2022-08-23T06:29:41.114Z,94.58
2022-08-23T06:32:26.256Z,92.89
2022-08-23T06:35:37.678Z,89.68
2022-08-23T06:38:06.682Z,89.87
2022-08-23T06:40:51.802Z,85.06
2022-08-23T06:43:39.160Z,84.16
2022-08-23T06:46:29.230Z,85.87
2022-08-23T06:48:56.549Z,84.17
2022-08-23T06:51:27.003Z,85.55
2022-08-23T06:53:57.437Z,85.90
2022-08-23T06:57:02.292Z,85.48
2022-08-23T06:59:31.762Z,80.80
2022-08-23T07:02:12.722Z,83.41
2022-08-23T07:04:58.227Z,82.16
2022-08-23T07:07:44.339Z,82.33
2022-08-23T07:10:13.390Z,82.39
2022-08-23T07:12:42.655Z,85.24
2022-08-23T07:15:11.049Z,79.88
2022-08-23T07:17:37.974Z,81.19
2022-08-23T07:20:04.830Z,81.42
2022-08-23T07:22:33.607Z,83.59
2022-08-23T07:25:00.682Z,81.56
2022-08-23T07:27:28.749Z,79.57
2022-08-23T07:30:04.413Z,82.11
2022-08-23T07:32:31.131Z,82.54
2022-08-23T07:35:02.648Z,81.51
2022-08-23T07:37:30.958Z,81.20
2022-08-23T07:39:59.635Z,77.36
2022-08-23T07:42:26.291Z,80.04
2022-08-23T07:44:55.086Z,77.26
2022-08-23T07:47:24.690Z,79.01
2022-08-23T07:49:54.360Z,79.18
2022-08-23T07:52:21.378Z,75.56
2022-08-23T07:54:49.593Z,75.09
2022-08-23T07:57:37.198Z,74.33
2022-08-23T08:00:22.277Z,75.35
2022-08-23T08:03:02.273Z,75.17
2022-08-23T08:05:40.914Z,74.39
2022-08-23T08:08:08.162Z,68.13
2022-08-23T08:10:38.426Z,69.54
2022-08-23T08:13:05.338Z,69.92
2022-08-23T08:15:32.218Z,65.01
2022-08-23T08:18:05.828Z,64.40
2022-08-23T08:20:51.470Z,64.33
2022-08-23T08:23:53.073Z,63.66
2022-08-23T08:26:45.898Z,65.50
2022-08-23T08:29:13.548Z,58.45
2022-08-23T08:31:44.061Z,58.48
2022-08-23T08:34:11.179Z,62.38
2022-08-23T08:36:41.221Z,64.45
2022-08-23T08:39:16.391Z,61.59
2022-08-23T08:42:05.246Z,59.51
2022-08-23T08:44:34.513Z,57.58
2022-08-23T08:47:06.996Z,58.71
2022-08-23T08:49:36.931Z,63.09
2022-08-23T08:52:11.315Z,61.95
2022-08-23T08:54:38.799Z,63.15
2022-08-23T08:57:07.685Z,64.77
2022-08-23T08:59:55.247Z,58.16
2022-08-23T09:02:32.371Z,62.35
2022-08-23T09:05:09.585Z,58.62
2022-08-23T09:07:47.306Z,61.91
2022-08-23T09:10:17.002Z,61.13
2022-08-23T09:12:56.981Z,62.63
2022-08-23T09:15:29.783Z,65.30
2022-08-23T09:18:07.575Z,64.14
2022-08-23T09:20:34.855Z,63.10
2022-08-23T09:23:15.234Z,64.04
2022-08-23T09:25:50.493Z,65.40
2022-08-23T09:28:17.379Z,63.35
2022-08-23T09:30:49.319Z,66.66
2022-08-23T09:33:17.667Z,65.42
2022-08-23T09:35:52.377Z,63.73
2022-08-23T09:38:20.332Z,67.19
2022-08-23T09:40:51.308Z,62.33
2022-08-23T09:43:18.285Z,61.71
2022-08-23T09:45:50.929Z,61.00
2022-08-23T09:48:35.940Z,60.19
2022-08-23T09:51:21.637Z,58.16
2022-08-23T09:53:50.631Z,57.74
2022-08-23T09:56:27.244Z,55.33
2022-08-23T09:58:54.505Z,57.81
2022-08-23T10:01:39.319Z,58.85
2022-08-23T10:04:14.415Z,57.06
2022-08-23T10:06:43.891Z,59.17
2022-08-23T10:09:21.625Z,59.39
2022-08-23T10:11:49.979Z,55.13
2022-08-23T10:14:18.862Z,54.70
2022-08-23T10:17:05.204Z,52.97
2022-08-23T10:19:44.321Z,52.96
2022-08-23T10:22:20.141Z,54.35
2022-08-23T10:25:14.059Z,50.57
2022-08-23T10:28:02.495Z,49.51
2022-08-23T10:30:40.502Z,50.49
2022-08-23T10:33:18.917Z,48.81
2022-08-23T10:36:04.370Z,48.47
2022-08-23T10:38:34.964Z,48.35
2022-08-23T10:41:03.878Z,50.32
2022-08-23T10:43:36.895Z,50.20
2022-08-23T10:46:07.420Z,51.04
2022-08-23T10:48:51.917Z,53.00
2022-08-23T10:51:23.063Z,50.55
2022-08-23T10:54:34.445Z,50.45
2022-08-23T10:57:05.455Z,51.75
2022-08-23T10:59:34.829Z,52.01
2022-08-23T11:02:05.129Z,52.58
2022-08-23T11:04:53.240Z,53.01
2022-08-23T11:07:31.301Z,51.38
2022-08-23T11:10:05.401Z,52.85
2022-08-23T11:12:34.528Z,51.79
2022-08-23T11:15:07.124Z,51.01
2022-08-23T11:17:49.559Z,51.68
2022-08-23T11:20:36.379Z,51.88
2022-08-23T11:23:04.881Z,52.08
2022-08-23T11:25:31.722Z,52.45
2022-08-23T11:28:16.953Z,52.43
2022-08-23T11:30:45.311Z,52.83
2022-08-23T11:33:14.557Z,53.44
2022-08-23T11:35:44.330Z,54.46
2022-08-23T11:38:14.189Z,54.06
2022-08-23T11:40:52.279Z,55.43
2022-08-23T11:43:28.214Z,53.55
2022-08-23T11:46:12.028Z,52.26
2022-08-23T11:48:43.556Z,54.24
2022-08-23T11:51:19.637Z,53.29
2022-08-23T11:53:49.225Z,52.25
2022-08-23T11:56:24.691Z,52.50
2022-08-23T11:58:51.154Z,52.73
2022-08-23T12:01:27.823Z,53.95
2022-08-23T12:03:56.830Z,53.98
2022-08-23T12:06:41.921Z,54.36
2022-08-23T12:09:12.194Z,52.03
2022-08-23T12:11:57.140Z,51.90
2022-08-23T12:14:42.524Z,51.62
2022-08-23T12:17:12.086Z,51.47
2022-08-23T12:19:41.080Z,50.31
2022-08-23T12:22:16.234Z,49.32
2022-08-23T12:24:42.696Z,50.71
2022-08-23T12:27:18.137Z,50.98
2022-08-23T12:29:54.750Z,49.67
2022-08-23T12:32:24.009Z,50.88
2022-08-23T12:35:01.374Z,51.26
2022-08-23T12:37:33.673Z,48.98
2022-08-23T12:40:02.321Z,49.75
2022-08-23T12:42:34.782Z,50.69
2022-08-23T12:45:05.253Z,49.92
2022-08-23T12:47:32.203Z,49.01
2022-08-23T12:50:01.610Z,51.89
2022-08-23T12:52:30.534Z,52.71
2022-08-23T12:54:58.093Z,52.79
2022-08-23T12:57:29.851Z,49.91
2022-08-23T13:00:16.457Z,51.78
2022-08-23T13:02:49.259Z,53.91
2022-08-23T13:05:39.086Z,53.30
2022-08-23T13:08:11.054Z,53.50
2022-08-23T13:10:39.142Z,54.48
2022-08-23T13:13:07.401Z,53.92
2022-08-23T13:15:48.599Z,53.27
2022-08-23T13:18:27.443Z,52.34
2022-08-23T13:21:12.449Z,54.21
2022-08-23T13:23:38.989Z,53.06
2022-08-23T13:26:26.866Z,54.52
2022-08-23T13:29:07.457Z,52.76
2022-08-23T13:32:12.617Z,50.98
2022-08-23T13:34:48.812Z,51.01
2022-08-23T13:37:22.339Z,50.63
2022-08-23T13:39:51.098Z,50.28
2022-08-23T13:42:26.544Z,50.72
2022-08-23T13:44:53.599Z,50.63
2022-08-23T13:47:22.919Z,50.58
2022-08-23T13:49:49.927Z,50.81
2022-08-23T13:52:50.592Z,51.51
2022-08-23T13:55:03.034Z,52.49
2022-08-23T13:57:32.223Z,50.82
2022-08-23T13:59:59.069Z,51.04
2022-08-23T14:02:26.132Z,51.88
2022-08-23T14:04:52.806Z,50.79
2022-08-23T14:07:19.519Z,51.67
2022-08-23T14:09:46.139Z,52.88
2022-08-23T14:12:18.034Z,52.27
2022-08-23T14:14:45.822Z,52.33
2022-08-23T14:17:16.692Z,53.47
2022-08-23T14:22:33.287Z,54.74
2022-08-23T14:24:59.818Z,54.11
2022-08-23T14:27:26.635Z,53.01
2022-08-23T14:29:54.404Z,53.66
2022-08-23T14:32:20.943Z,54.71
2022-08-23T14:34:47.515Z,54.93
2022-08-23T14:38:02.011Z,55.50
2022-08-23T14:40:00.664Z,55.74
2022-08-23T14:42:27.530Z,55.24
2022-08-23T14:44:54.121Z,55.77
2022-08-23T14:47:20.675Z,54.59
2022-08-23T14:49:49.887Z,53.84
2022-08-23T14:52:18.598Z,51.50
2022-08-23T14:54:45.257Z,50.80
2022-08-23T14:57:12.178Z,52.55
2022-08-23T14:59:38.802Z,52.13
2022-08-23T15:02:06.387Z,52.04
2022-08-23T15:04:34.507Z,52.55
2022-08-23T15:07:18.571Z,50.80
2022-08-23T15:09:46.420Z,51.90
2022-08-23T15:14:59.406Z,53.45
2022-08-23T15:17:30.571Z,52.75
2022-08-23T15:19:58.169Z,53.06
2022-08-23T15:22:25.284Z,54.27
2022-08-23T15:24:52.719Z,55.05
2022-08-23T15:27:19.258Z,54.56
2022-08-23T15:29:45.875Z,56.27
2022-08-23T15:32:12.841Z,56.26
2022-08-23T15:34:40.170Z,56.26
2022-08-23T15:37:13.008Z,57.04
2022-08-23T15:39:41.000Z,56.33
2022-08-23T15:42:07.616Z,57.20
2022-08-23T15:44:34.077Z,57.99
2022-08-23T15:47:01.566Z,58.40
2022-08-23T15:49:30.770Z,59.12
2022-08-23T15:51:59.469Z,58.55
2022-08-23T15:54:25.947Z,59.11
2022-08-23T15:56:53.260Z,58.78
2022-08-23T15:59:21.615Z,58.44
2022-08-23T16:01:48.281Z,57.94
2022-08-23T16:04:14.775Z,58.52
2022-08-23T16:06:42.062Z,58.10
2022-08-23T16:09:14.069Z,58.66
2022-08-23T16:11:43.239Z,59.73
2022-08-23T16:14:09.970Z,60.38
2022-08-23T16:16:37.908Z,61.10
2022-08-23T16:19:04.545Z,60.69
2022-08-23T16:21:31.312Z,61.19
2022-08-23T16:23:58.187Z,60.29
2022-08-23T16:26:34.828Z,60.28
2022-08-23T16:29:02.893Z,60.22
2022-08-23T16:31:38.962Z,59.79
2022-08-23T16:34:07.880Z,59.64
2022-08-23T16:36:34.471Z,59.87
2022-08-23T16:39:01.045Z,60.43
2022-08-23T16:41:27.590Z,60.79
2022-08-23T16:43:54.082Z,60.85
2022-08-23T16:46:21.871Z,60.56
2022-08-23T16:48:48.461Z,60.83
2022-08-23T16:51:15.353Z,60.64
2022-08-23T16:53:41.875Z,61.21
2022-08-23T16:56:11.384Z,61.33
2022-08-23T16:58:37.903Z,61.82
2022-08-23T17:01:04.787Z,60.58
2022-08-23T17:03:31.345Z,61.08
2022-08-23T17:05:57.845Z,61.15
2022-08-23T17:08:24.350Z,60.55
2022-08-23T17:10:51.470Z,59.47
2022-08-23T17:13:18.665Z,57.99
2022-08-23T17:15:45.142Z,59.37
2022-08-23T17:18:11.917Z,60.29
2022-08-23T17:20:39.194Z,59.77
2022-08-23T17:23:06.390Z,58.89
2022-08-23T17:25:33.401Z,60.40
2022-08-23T17:27:59.984Z,60.69
2022-08-23T17:30:26.841Z,60.74
2022-08-23T17:32:53.940Z,60.02
2022-08-23T17:35:22.725Z,61.31
2022-08-23T17:37:49.225Z,60.89
2022-08-23T17:40:17.350Z,61.40
2022-08-23T17:42:47.721Z,63.28
2022-08-23T17:45:14.357Z,64.38
2022-08-23T17:47:41.175Z,65.78
2022-08-23T17:50:08.291Z,66.58
2022-08-23T17:52:35.066Z,66.29
2022-08-23T17:55:01.634Z,67.55
2022-08-23T17:57:28.763Z,67.46
2022-08-23T17:59:58.790Z,66.19
2022-08-23T18:02:25.368Z,66.29
2022-08-23T18:04:51.891Z,67.18
2022-08-23T18:07:21.807Z,67.23
2022-08-23T18:09:48.860Z,66.57
2022-08-23T18:12:15.577Z,67.39
2022-08-23T18:14:42.201Z,67.29
2022-08-23T18:17:08.691Z,66.52
2022-08-23T18:19:35.218Z,66.76
2022-08-23T18:22:02.643Z,66.99
2022-08-23T18:24:29.373Z,68.64
2022-08-23T18:27:15.010Z,68.21
2022-08-23T18:29:47.416Z,69.59
2022-08-23T18:32:18.400Z,70.40
2022-08-23T18:34:45.022Z,69.13
2022-08-23T18:37:11.540Z,70.05
2022-08-23T18:39:38.040Z,69.27
2022-08-23T18:42:05.285Z,70.05
2022-08-23T18:44:31.949Z,68.33
2022-08-23T18:46:58.704Z,68.29
2022-08-23T18:49:25.273Z,68.43
2022-08-23T18:51:51.791Z,68.39
2022-08-23T18:54:18.418Z,68.61
2022-08-23T18:56:45.022Z,67.39
2022-08-23T18:59:12.904Z,67.47
2022-08-23T19:01:40.781Z,64.80
2022-08-23T19:04:07.810Z,65.80
2022-08-23T19:06:34.450Z,66.21
2022-08-23T19:09:01.057Z,66.91
2022-08-23T19:11:28.051Z,67.74
2022-08-23T19:13:54.899Z,67.95
2022-08-23T19:16:23.871Z,67.91
2022-08-23T19:18:50.841Z,68.24
2022-08-23T19:21:20.590Z,68.37
2022-08-23T19:23:48.162Z,69.09
2022-08-23T19:26:15.445Z,70.12
2022-08-23T19:28:42.746Z,69.61
2022-08-23T19:31:09.884Z,69.62
2022-08-23T19:33:36.528Z,69.56
2022-08-23T19:36:03.415Z,69.64
2022-08-23T19:38:30.097Z,69.18
2022-08-23T19:40:57.974Z,70.19
2022-08-23T19:43:25.211Z,70.32
2022-08-23T19:45:51.999Z,69.74
2022-08-23T19:48:19.269Z,68.80
2022-08-23T19:50:46.632Z,69.58
2022-08-23T19:53:13.333Z,70.58
2022-08-23T19:55:42.269Z,70.68
2022-08-23T19:58:12.849Z,69.42
2022-08-23T20:00:39.534Z,68.50
2022-08-23T20:03:06.307Z,69.90
2022-08-23T20:05:34.229Z,70.31
2022-08-23T20:08:00.952Z,70.01
2022-08-23T20:10:27.617Z,69.66
2022-08-23T20:12:54.158Z,69.39
2022-08-23T20:15:20.845Z,66.37
2022-08-23T20:17:47.343Z,67.02
2022-08-23T20:20:13.926Z,66.63
2022-08-23T20:22:59.235Z,66.55
2022-08-23T20:25:25.799Z,66.72
2022-08-23T20:27:52.390Z,68.20
2022-08-23T20:30:18.899Z,68.75
2022-08-23T20:32:45.494Z,68.15
2022-08-23T20:35:12.106Z,68.54
2022-08-23T20:37:39.038Z,68.37
2022-08-23T20:40:06.158Z,70.37
2022-08-23T20:42:32.794Z,69.49
2022-08-23T20:44:59.330Z,69.14
2022-08-23T20:47:25.921Z,69.96
2022-08-23T20:49:52.465Z,72.63
2022-08-23T20:52:18.954Z,71.27
2022-08-23T20:54:45.978Z,71.47
2022-08-23T20:57:12.513Z,70.46
2022-08-23T20:59:44.189Z,71.34
2022-08-23T21:02:11.442Z,71.05
2022-08-23T21:04:38.093Z,73.12
2022-08-23T21:07:08.191Z,72.94
2022-08-23T21:09:34.853Z,72.70
2022-08-23T21:12:01.398Z,72.51
2022-08-23T21:14:27.957Z,74.07
2022-08-23T21:16:54.669Z,72.28
2022-08-23T21:19:21.242Z,73.33
2022-08-23T21:21:47.785Z,72.38
2022-08-23T21:24:14.380Z,71.43
2022-08-23T21:26:40.896Z,73.54
2022-08-23T21:29:07.862Z,71.52
2022-08-23T21:31:35.121Z,71.38
2022-08-23T21:34:01.734Z,70.80
2022-08-23T21:36:28.372Z,68.77
2022-08-23T21:38:54.942Z,67.82
2022-08-23T21:41:30.403Z,67.44
2022-08-23T21:43:57.064Z,67.09
2022-08-23T21:46:23.645Z,66.69
2022-08-23T21:48:50.476Z,66.19
2022-08-23T21:51:17.039Z,68.01
2022-08-23T21:53:43.556Z,67.09
2022-08-23T21:56:10.048Z,66.97
2022-08-23T21:58:36.538Z,67.51
2022-08-23T22:01:03.020Z,66.83
2022-08-23T22:03:29.686Z,66.98
2022-08-23T22:05:56.194Z,68.13
2022-08-23T22:08:22.699Z,68.69
2022-08-23T22:10:57.309Z,68.52
2022-08-23T22:13:26.067Z,68.05
2022-08-23T22:15:52.631Z,66.71
2022-08-23T22:18:19.517Z,66.61
2022-08-23T22:20:46.484Z,67.11
2022-08-23T22:23:13.035Z,66.71
2022-08-23T22:25:39.622Z,66.94
2022-08-23T22:28:06.123Z,65.59
2022-08-23T22:30:32.613Z,65.79
2022-08-23T22:32:59.215Z,64.65
2022-08-23T22:35:25.710Z,65.18
2022-08-23T22:38:12.350Z,64.81
2022-08-23T22:40:39.450Z,64.73
2022-08-23T22:43:06.090Z,65.05
2022-08-23T22:45:32.594Z,65.89
2022-08-23T22:47:59.158Z,65.68
2022-08-23T22:50:25.666Z,65.85
2022-08-23T22:52:52.158Z,66.25
2022-08-23T22:55:18.754Z,66.09
2022-08-23T22:57:45.450Z,66.06
2022-08-23T23:00:12.076Z,66.14
2022-08-23T23:02:38.937Z,66.04
2022-08-23T23:05:07.888Z,64.09
2022-08-23T23:07:53.215Z,64.77
2022-08-23T23:10:19.702Z,66.95
2022-08-23T23:12:46.394Z,71.16
2022-08-23T23:15:12.967Z,74.93
2022-08-23T23:17:39.440Z,77.47
2022-08-23T23:20:24.765Z,80.82
2022-08-23T23:22:51.860Z,82.95
2022-08-23T23:25:18.624Z,84.98
2022-08-23T23:27:45.146Z,83.42
2022-08-23T23:30:11.900Z,85.37
2022-08-23T23:32:38.478Z,85.46
2022-08-23T23:35:06.775Z,85.50
2022-08-23T23:37:33.332Z,86.43
2022-08-23T23:39:59.874Z,86.82
2022-08-23T23:42:26.466Z,86.60
2022-08-23T23:44:52.937Z,87.41
2022-08-23T23:47:19.558Z,87.11
2022-08-23T23:49:46.873Z,87.13
2022-08-23T23:52:13.412Z,88.06
2022-08-23T23:54:40.919Z,89.46
2022-08-23T23:57:08.018Z,90.50
2022-08-23T23:59:34.653Z,90.76
